createdAt,value
2022-07-27T00:01:51.441Z,22.50
2022-07-27T00:04:36.629Z,22.50
2022-07-27T00:07:22.310Z,22.50
2022-07-27T00:10:08.061Z,22.40
2022-07-27T00:12:53.097Z,22.60
2022-07-27T00:15:38.614Z,22.50
2022-07-27T00:18:24.374Z,22.60
2022-07-27T00:21:09.854Z,22.70
2022-07-27T00:23:55.345Z,22.70
2022-07-27T00:26:40.933Z,22.80
2022-07-27T00:29:26.386Z,22.80
2022-07-27T00:32:12.830Z,22.70
2022-07-27T00:34:58.001Z,22.70
2022-07-27T00:37:43.268Z,22.60
2022-07-27T00:40:28.761Z,22.60
2022-07-27T00:43:14.115Z,22.60
2022-07-27T00:45:59.641Z,22.60
2022-07-27T00:48:50.751Z,22.60
2022-07-27T00:51:36.341Z,22.60
2022-07-27T00:54:22.559Z,22.60
2022-07-27T00:57:10.780Z,22.50
2022-07-27T00:59:56.196Z,22.40
2022-07-27T01:02:46.406Z,22.40
2022-07-27T01:05:36.590Z,22.40
2022-07-27T01:08:23.364Z,22.20
2022-07-27T01:11:09.061Z,22.20
2022-07-27T01:13:54.235Z,22.20
2022-07-27T01:16:39.972Z,22.20
2022-07-27T01:19:25.278Z,22.20
2022-07-27T01:22:11.812Z,22.20
2022-07-27T01:24:57.351Z,22.10
2022-07-27T01:27:42.651Z,22.10
2022-07-27T01:30:29.686Z,22.20
2022-07-27T01:33:15.000Z,22.00
2022-07-27T01:36:00.442Z,22.00
2022-07-27T01:38:46.472Z,21.90
2022-07-27T01:41:31.842Z,21.70
2022-07-27T01:44:17.113Z,21.60
2022-07-27T01:47:02.386Z,21.40
2022-07-27T01:49:59.745Z,21.50
2022-07-27T01:52:45.254Z,21.50
2022-07-27T01:55:38.607Z,21.60
2022-07-27T01:58:23.990Z,21.70
2022-07-27T02:01:10.302Z,21.70
2022-07-27T02:03:55.287Z,21.60
2022-07-27T02:06:40.692Z,21.60
2022-07-27T02:09:26.030Z,21.60
2022-07-27T02:12:29.976Z,21.50
2022-07-27T02:15:19.212Z,21.50
2022-07-27T02:18:04.644Z,21.50
2022-07-27T02:21:10.660Z,21.40
2022-07-27T02:23:55.803Z,21.50
2022-07-27T02:26:41.252Z,21.50
2022-07-27T02:29:26.445Z,21.50
2022-07-27T02:32:11.868Z,21.50
2022-07-27T02:34:57.482Z,21.50
2022-07-27T02:37:42.730Z,21.40
2022-07-27T02:40:28.049Z,21.40
2022-07-27T02:43:13.972Z,21.50
2022-07-27T02:45:59.199Z,21.60
2022-07-27T02:48:44.727Z,21.50
2022-07-27T02:51:29.938Z,21.40
2022-07-27T02:54:15.441Z,21.20
2022-07-27T02:57:05.001Z,21.20
2022-07-27T02:59:50.657Z,21.30
2022-07-27T03:02:36.552Z,21.20
2022-07-27T03:05:21.839Z,21.00
2022-07-27T03:08:07.323Z,20.90
2022-07-27T03:10:52.661Z,20.90
2022-07-27T03:13:38.017Z,20.90
2022-07-27T03:16:23.688Z,21.00
2022-07-27T03:19:09.193Z,21.10
2022-07-27T03:21:54.817Z,21.00
2022-07-27T03:24:40.487Z,21.00
2022-07-27T03:27:26.023Z,21.00
2022-07-27T03:30:11.406Z,20.90
2022-07-27T03:32:56.585Z,20.80
2022-07-27T03:35:41.826Z,20.90
2022-07-27T03:38:27.201Z,20.70
2022-07-27T03:41:12.552Z,20.90
2022-07-27T03:43:58.006Z,20.70
2022-07-27T03:46:43.370Z,20.70
2022-07-27T03:49:28.702Z,20.70
2022-07-27T03:52:17.669Z,20.70
2022-07-27T03:55:03.976Z,20.70
2022-07-27T03:57:50.809Z,20.40
2022-07-27T04:00:36.418Z,20.30
2022-07-27T04:03:21.947Z,20.10
2022-07-27T04:06:07.360Z,20.00
2022-07-27T04:08:57.525Z,20.00
2022-07-27T04:11:51.054Z,19.90
2022-07-27T04:14:36.659Z,19.90
2022-07-27T04:17:56.164Z,19.90
2022-07-27T04:20:27.727Z,19.90
2022-07-27T04:23:12.859Z,20.10
2022-07-27T04:25:58.889Z,20.00
2022-07-27T04:28:44.322Z,20.10
2022-07-27T04:31:29.579Z,20.00
2022-07-27T04:34:15.043Z,20.10
2022-07-27T04:37:00.364Z,20.10
2022-07-27T04:39:45.691Z,20.10
2022-07-27T04:42:31.244Z,20.20
2022-07-27T04:45:16.499Z,20.20
2022-07-27T04:48:09.156Z,20.30
2022-07-27T04:50:54.494Z,20.60
2022-07-27T04:53:53.556Z,20.90
2022-07-27T04:56:43.798Z,21.00
2022-07-27T04:59:29.017Z,21.00
2022-07-27T05:02:14.234Z,21.00
2022-07-27T05:05:00.501Z,21.00
2022-07-27T05:07:45.879Z,21.00
2022-07-27T05:10:31.318Z,20.80
2022-07-27T05:13:17.291Z,20.70
2022-07-27T05:16:02.658Z,20.60
2022-07-27T05:18:48.143Z,20.60
2022-07-27T05:21:33.510Z,20.50
2022-07-27T05:24:18.931Z,20.50
2022-07-27T05:27:05.953Z,20.60
2022-07-27T05:29:50.987Z,20.60
2022-07-27T05:32:37.653Z,20.60
2022-07-27T05:35:22.837Z,20.60
2022-07-27T05:38:08.202Z,20.60
2022-07-27T05:40:53.622Z,20.60
2022-07-27T05:43:38.966Z,20.50
2022-07-27T05:46:25.629Z,20.40
2022-07-27T05:49:13.296Z,20.50
2022-07-27T05:51:58.806Z,20.60
2022-07-27T05:54:44.712Z,20.60
2022-07-27T05:57:30.187Z,20.70
2022-07-27T06:00:15.673Z,20.50
2022-07-27T06:03:01.194Z,20.60
2022-07-27T06:05:46.410Z,20.70
2022-07-27T06:08:32.706Z,20.90
2022-07-27T06:11:17.886Z,20.90
2022-07-27T06:14:03.133Z,20.90
2022-07-27T06:16:48.687Z,20.80
2022-07-27T06:19:35.968Z,20.70
2022-07-27T06:22:22.125Z,20.60
2022-07-27T06:25:07.967Z,20.50
2022-07-27T06:27:53.409Z,20.50
2022-07-27T06:30:39.282Z,20.50
2022-07-27T06:33:31.656Z,20.50
2022-07-27T06:36:16.670Z,20.60
2022-07-27T06:39:02.047Z,20.30
2022-07-27T06:41:47.511Z,20.10
2022-07-27T06:44:32.787Z,20.30
2022-07-27T06:47:18.411Z,20.50
2022-07-27T06:50:05.094Z,20.50
2022-07-27T06:52:50.675Z,20.20
2022-07-27T06:55:35.994Z,20.00
2022-07-27T06:58:21.343Z,19.90
2022-07-27T07:01:06.829Z,19.70
2022-07-27T07:03:52.285Z,19.40
2022-07-27T07:06:37.568Z,19.50
2022-07-27T07:09:22.959Z,19.40
2022-07-27T07:12:08.559Z,19.40
2022-07-27T07:14:53.823Z,19.30
2022-07-27T07:17:40.352Z,19.20
2022-07-27T07:20:25.546Z,19.20
2022-07-27T07:23:11.436Z,19.40
2022-07-27T07:25:56.768Z,19.40
2022-07-27T07:28:42.585Z,19.60
2022-07-27T07:31:28.155Z,19.40
2022-07-27T07:34:13.411Z,19.40
2022-07-27T07:36:58.659Z,19.40
2022-07-27T07:39:44.106Z,19.20
2022-07-27T07:42:29.623Z,19.30
2022-07-27T07:45:15.944Z,19.20
2022-07-27T07:48:01.495Z,19.10
2022-07-27T07:50:51.966Z,19.20
2022-07-27T07:53:41.790Z,19.40
2022-07-27T07:56:27.415Z,19.60
2022-07-27T07:59:12.976Z,19.70
2022-07-27T08:01:58.968Z,19.90
2022-07-27T08:04:44.155Z,19.90
2022-07-27T08:07:29.661Z,19.90
2022-07-27T08:10:16.154Z,20.10
2022-07-27T08:13:01.416Z,20.30
2022-07-27T08:15:46.892Z,20.30
2022-07-27T08:18:32.525Z,20.20
2022-07-27T08:21:18.142Z,20.10
2022-07-27T08:24:03.901Z,20.00
2022-07-27T08:26:48.911Z,19.70
2022-07-27T08:29:36.609Z,19.50
2022-07-27T08:32:22.635Z,19.40
2022-07-27T08:35:08.137Z,19.60
2022-07-27T08:37:53.920Z,19.70
2022-07-27T08:40:43.660Z,20.00
2022-07-27T08:43:31.826Z,20.00
2022-07-27T08:46:18.620Z,20.00
2022-07-27T08:49:04.609Z,19.90
2022-07-27T08:51:50.664Z,19.90
2022-07-27T08:54:39.506Z,19.90
2022-07-27T08:57:24.763Z,20.20
2022-07-27T09:00:12.136Z,20.30
2022-07-27T09:02:57.882Z,20.40
2022-07-27T09:05:45.490Z,20.70
2022-07-27T09:08:33.540Z,20.60
2022-07-27T09:11:20.011Z,20.30
2022-07-27T09:14:08.102Z,20.50
2022-07-27T09:17:44.564Z,20.20
2022-07-27T09:20:08.024Z,20.10
2022-07-27T09:22:55.413Z,20.10
2022-07-27T09:26:02.871Z,20.10
2022-07-27T09:28:46.687Z,20.10
2022-07-27T09:31:33.291Z,20.20
2022-07-27T09:34:34.138Z,20.30
2022-07-27T09:37:27.939Z,20.10
2022-07-27T09:40:25.514Z,20.30
2022-07-27T09:44:12.257Z,20.30
2022-07-27T09:46:34.427Z,20.40
2022-07-27T09:49:34.357Z,20.80
2022-07-27T09:52:28.142Z,20.70
2022-07-27T09:55:14.230Z,20.90
2022-07-27T09:57:59.510Z,21.30
2022-07-27T10:00:57.616Z,21.20
2022-07-27T10:03:44.909Z,21.10
2022-07-27T10:06:38.958Z,21.10
2022-07-27T10:09:34.780Z,21.20
2022-07-27T10:12:20.201Z,21.20
2022-07-27T10:15:10.067Z,21.50
2022-07-27T10:18:07.871Z,21.60
2022-07-27T10:20:53.694Z,21.80
2022-07-27T10:23:39.327Z,22.00
2022-07-27T10:26:24.707Z,22.10
2022-07-27T10:29:20.728Z,22.20
2022-07-27T10:32:08.826Z,22.20
2022-07-27T10:34:54.363Z,22.50
2022-07-27T10:37:39.747Z,22.80
2022-07-27T10:40:34.441Z,23.20
2022-07-27T10:43:21.717Z,23.10
2022-07-27T10:46:07.150Z,23.00
2022-07-27T10:48:52.464Z,23.30
2022-07-27T10:51:38.171Z,23.40
2022-07-27T10:54:35.301Z,23.30
2022-07-27T10:57:26.914Z,23.30
2022-07-27T11:00:19.474Z,23.60
2022-07-27T11:03:05.875Z,23.90
2022-07-27T11:06:36.305Z,24.30
2022-07-27T11:12:48.722Z,24.70
2022-07-27T11:15:33.735Z,25.00
2022-07-27T11:18:28.367Z,25.30
2022-07-27T11:21:26.731Z,25.60
2022-07-27T11:24:19.611Z,25.80
2022-07-27T11:27:16.859Z,25.50
2022-07-27T11:30:02.773Z,25.50
2022-07-27T11:32:48.977Z,25.70
2022-07-27T11:35:34.236Z,26.20
2022-07-27T11:38:19.552Z,26.40
2022-07-27T11:41:15.351Z,26.40
2022-07-27T11:44:19.490Z,26.60
2022-07-27T11:47:05.363Z,26.80
2022-07-27T11:49:50.521Z,26.90
2022-07-27T11:52:35.871Z,27.30
2022-07-27T11:55:21.226Z,27.50
2022-07-27T11:58:06.551Z,27.70
2022-07-27T12:00:51.878Z,27.60
2022-07-27T12:03:45.997Z,27.40
2022-07-27T12:06:34.963Z,27.50
2022-07-27T12:09:21.157Z,27.80
2022-07-27T12:12:17.933Z,28.20
2022-07-27T12:15:44.783Z,27.80
2022-07-27T12:18:20.774Z,27.80
2022-07-27T12:21:19.162Z,28.20
2022-07-27T12:24:04.740Z,27.80
2022-07-27T12:27:14.327Z,28.00
2022-07-27T12:30:05.372Z,28.30
2022-07-27T12:32:55.355Z,28.40
2022-07-27T12:35:47.106Z,28.20
2022-07-27T12:38:43.678Z,28.40
2022-07-27T12:41:32.479Z,28.20
2022-07-27T12:44:17.736Z,28.90
2022-07-27T12:47:27.611Z,29.20
2022-07-27T12:50:15.721Z,29.20
2022-07-27T12:53:01.353Z,28.50
2022-07-27T12:55:47.154Z,28.10
2022-07-27T12:58:32.942Z,28.20
2022-07-27T13:01:18.197Z,28.20
2022-07-27T13:04:03.596Z,28.40
2022-07-27T13:06:49.285Z,28.20
2022-07-27T13:10:01.992Z,27.80
2022-07-27T13:12:42.067Z,27.60
2022-07-27T13:15:27.229Z,27.60
2022-07-27T13:18:12.815Z,27.90
2022-07-27T13:20:58.375Z,28.00
2022-07-27T13:23:43.779Z,28.00
2022-07-27T13:26:29.017Z,28.40
2022-07-27T13:29:14.914Z,28.30
2022-07-27T13:32:00.944Z,28.70
2022-07-27T13:34:46.193Z,29.10
2022-07-27T13:37:31.791Z,29.10
2022-07-27T13:40:17.189Z,29.30
2022-07-27T13:43:02.554Z,29.40
2022-07-27T13:45:54.493Z,29.20
2022-07-27T13:48:40.063Z,29.30
2022-07-27T13:51:25.322Z,29.60
2022-07-27T13:54:11.905Z,29.80
2022-07-27T13:56:57.385Z,29.90
2022-07-27T13:59:43.178Z,30.10
2022-07-27T14:02:28.622Z,30.30
2022-07-27T14:05:15.925Z,30.60
2022-07-27T14:08:04.346Z,30.20
2022-07-27T14:10:51.156Z,30.60
2022-07-27T14:13:36.906Z,30.70
2022-07-27T14:16:22.592Z,30.70
2022-07-27T14:19:12.489Z,30.30
2022-07-27T14:21:58.392Z,30.50
2022-07-27T14:24:44.245Z,30.80
2022-07-27T14:27:36.582Z,31.00
2022-07-27T14:30:24.496Z,31.10
2022-07-27T14:33:09.738Z,31.00
2022-07-27T14:35:56.110Z,30.70
2022-07-27T14:38:44.155Z,30.60
2022-07-27T14:41:30.329Z,30.80
2022-07-27T14:44:15.426Z,31.00
2022-07-27T14:47:04.399Z,31.10
2022-07-27T14:49:50.132Z,31.40
2022-07-27T14:52:36.173Z,31.40
2022-07-27T14:55:21.569Z,31.20
2022-07-27T14:58:07.157Z,31.10
2022-07-27T15:00:52.870Z,30.80
2022-07-27T15:03:38.529Z,30.50
2022-07-27T15:06:23.958Z,30.00
2022-07-27T15:09:09.562Z,30.00
2022-07-27T15:11:54.940Z,30.20
2022-07-27T15:14:40.036Z,30.60
2022-07-27T15:17:25.435Z,30.40
2022-07-27T15:20:11.636Z,30.10
2022-07-27T15:22:57.286Z,30.40
2022-07-27T15:25:42.843Z,30.50
2022-07-27T15:28:28.247Z,29.90
2022-07-27T15:31:13.915Z,29.70
2022-07-27T15:33:59.448Z,29.50
2022-07-27T15:36:50.061Z,29.30
2022-07-27T15:39:39.306Z,29.50
2022-07-27T15:42:25.241Z,29.70
2022-07-27T15:45:10.943Z,29.60
2022-07-27T15:47:56.503Z,29.40
2022-07-27T15:50:48.248Z,29.10
2022-07-27T15:53:41.563Z,29.20
2022-07-27T15:56:33.491Z,29.30
2022-07-27T15:59:20.104Z,29.20
2022-07-27T16:02:14.793Z,29.20
2022-07-27T16:05:03.554Z,29.40
2022-07-27T16:08:04.394Z,29.60
2022-07-27T16:10:53.437Z,29.50
2022-07-27T16:13:43.032Z,29.60
2022-07-27T16:16:31.667Z,29.60
2022-07-27T16:19:17.256Z,29.70
2022-07-27T16:22:03.741Z,29.80
2022-07-27T16:24:48.980Z,29.80
2022-07-27T16:27:34.686Z,29.90
2022-07-27T16:30:20.941Z,30.00
2022-07-27T16:33:06.660Z,29.90
2022-07-27T16:35:52.319Z,29.80
2022-07-27T16:38:49.475Z,29.90
2022-07-27T16:41:35.336Z,29.90
2022-07-27T16:44:21.249Z,29.80
2022-07-27T16:47:06.852Z,29.90
2022-07-27T16:49:52.249Z,29.80
2022-07-27T16:52:37.613Z,29.70
2022-07-27T16:55:23.728Z,29.60
2022-07-27T16:58:13.417Z,29.70
2022-07-27T17:00:58.772Z,29.50
2022-07-27T17:03:47.899Z,29.40
2022-07-27T17:06:35.123Z,29.10
2022-07-27T17:09:20.485Z,29.10
2022-07-27T17:12:05.786Z,29.10
2022-07-27T17:14:51.764Z,29.10
2022-07-27T17:17:37.181Z,29.00
2022-07-27T17:20:31.511Z,28.80
2022-07-27T17:23:20.623Z,28.60
2022-07-27T17:26:07.315Z,28.50
2022-07-27T17:28:53.158Z,28.40
2022-07-27T17:31:38.616Z,28.00
2022-07-27T17:34:23.913Z,27.60
2022-07-27T17:37:09.214Z,27.30
2022-07-27T17:39:54.606Z,27.30
2022-07-27T17:42:40.250Z,27.20
2022-07-27T17:45:26.511Z,27.00
2022-07-27T17:48:11.797Z,27.00
2022-07-27T17:50:57.329Z,27.00
2022-07-27T17:53:43.537Z,26.90
2022-07-27T17:56:28.989Z,26.80
2022-07-27T17:59:36.530Z,26.70
2022-07-27T18:02:20.570Z,26.70
2022-07-27T18:05:06.487Z,26.50
2022-07-27T18:07:53.343Z,26.60
2022-07-27T18:10:38.893Z,26.20
2022-07-27T18:13:39.456Z,26.30
2022-07-27T18:16:25.207Z,26.20
2022-07-27T18:19:10.715Z,26.10
2022-07-27T18:21:56.354Z,26.10
2022-07-27T18:24:41.827Z,25.90
2022-07-27T18:27:28.910Z,25.80
2022-07-27T18:30:14.064Z,25.80
2022-07-27T18:32:59.512Z,25.40
2022-07-27T18:35:46.140Z,25.30
2022-07-27T18:38:31.325Z,25.30
2022-07-27T18:41:18.961Z,25.30
2022-07-27T18:44:04.313Z,25.40
2022-07-27T18:46:49.384Z,25.30
2022-07-27T18:49:34.918Z,25.20
2022-07-27T18:52:20.186Z,25.10
2022-07-27T18:55:06.176Z,25.10
2022-07-27T18:57:55.889Z,25.00
2022-07-27T19:00:41.292Z,25.00
2022-07-27T19:03:27.765Z,24.90
2022-07-27T19:06:17.975Z,24.90
2022-07-27T19:09:04.873Z,24.90
2022-07-27T19:11:50.252Z,24.80
2022-07-27T19:14:35.807Z,24.80
2022-07-27T19:17:21.223Z,24.80
2022-07-27T19:20:09.177Z,24.60
2022-07-27T19:22:55.143Z,24.60
2022-07-27T19:25:43.464Z,24.50
2022-07-27T19:28:28.892Z,24.50
2022-07-27T19:31:22.691Z,24.50
2022-07-27T19:34:08.945Z,24.50
2022-07-27T19:36:54.351Z,24.50
2022-07-27T19:39:57.101Z,24.40
2022-07-27T19:42:45.310Z,24.30
2022-07-27T19:45:30.711Z,24.30
2022-07-27T19:48:16.239Z,24.30
2022-07-27T19:51:06.642Z,24.20
2022-07-27T19:53:52.471Z,24.20
2022-07-27T19:56:37.883Z,24.10
2022-07-27T19:59:23.138Z,24.10
2022-07-27T20:02:08.574Z,24.10
2022-07-27T20:04:54.153Z,24.00
2022-07-27T20:07:39.419Z,23.90
2022-07-27T20:10:25.398Z,23.90
2022-07-27T20:13:11.127Z,23.70
2022-07-27T20:15:56.249Z,23.50
2022-07-27T20:18:41.794Z,23.30
2022-07-27T20:21:27.155Z,23.20
2022-07-27T20:24:13.893Z,23.00
2022-07-27T20:26:59.031Z,22.90
2022-07-27T20:29:44.285Z,22.80
2022-07-27T20:32:30.284Z,22.70
2022-07-27T20:35:15.870Z,22.60
2022-07-27T20:38:01.394Z,22.50
2022-07-27T20:40:46.730Z,22.50
2022-07-27T20:43:32.473Z,22.40
2022-07-27T20:46:17.508Z,22.30
2022-07-27T20:49:02.889Z,22.10
2022-07-27T20:51:48.309Z,22.10
2022-07-27T20:54:35.459Z,22.10
2022-07-27T20:57:20.591Z,22.00
2022-07-27T21:00:07.614Z,22.00
2022-07-27T21:02:53.151Z,21.90
2022-07-27T21:05:38.686Z,21.80
2022-07-27T21:08:24.282Z,21.70
2022-07-27T21:11:10.227Z,21.50
2022-07-27T21:13:55.927Z,21.50
2022-07-27T21:16:41.678Z,21.40
2022-07-27T21:19:27.842Z,21.30
2022-07-27T21:22:13.537Z,21.20
2022-07-27T21:24:59.094Z,21.20
2022-07-27T21:27:45.763Z,21.10
2022-07-27T21:30:33.920Z,21.10
2022-07-27T21:33:19.588Z,21.10
2022-07-27T21:36:05.364Z,21.00
2022-07-27T21:38:50.565Z,21.00
2022-07-27T21:41:36.313Z,21.00
2022-07-27T21:44:22.250Z,21.10
2022-07-27T21:47:13.071Z,21.00
2022-07-27T21:49:59.401Z,20.90
2022-07-27T21:52:45.070Z,21.10
2022-07-27T21:55:30.535Z,21.10
2022-07-27T21:58:16.097Z,21.20
2022-07-27T22:01:01.299Z,21.20
2022-07-27T22:03:46.911Z,21.20
2022-07-27T22:06:32.448Z,21.20
2022-07-27T22:09:20.049Z,21.20
2022-07-27T22:12:05.250Z,21.20
2022-07-27T22:14:50.713Z,21.20
2022-07-27T22:17:36.062Z,21.10
2022-07-27T22:20:35.778Z,20.90
2022-07-27T22:23:20.784Z,20.90
2022-07-27T22:26:06.201Z,20.80
2022-07-27T22:28:51.184Z,20.80
2022-07-27T22:31:36.655Z,20.80
2022-07-27T22:34:21.981Z,20.70
2022-07-27T22:37:07.214Z,20.60
2022-07-27T22:39:52.635Z,20.70
2022-07-27T22:42:38.755Z,20.60
2022-07-27T22:45:23.854Z,20.60
2022-07-27T22:48:09.137Z,20.60
2022-07-27T22:50:54.402Z,20.50
2022-07-27T22:53:39.742Z,20.40
2022-07-27T22:56:24.966Z,20.40
2022-07-27T22:59:10.389Z,20.30
2022-07-27T23:01:55.655Z,20.20
2022-07-27T23:04:40.824Z,20.20
2022-07-27T23:07:26.301Z,20.20
2022-07-27T23:10:31.607Z,20.00
2022-07-27T23:13:18.685Z,20.00
2022-07-27T23:16:03.975Z,20.00
2022-07-27T23:18:49.264Z,19.90
2022-07-27T23:21:34.939Z,19.90
2022-07-27T23:24:29.317Z,19.80
2022-07-27T23:27:14.793Z,19.60
2022-07-27T23:30:00.153Z,19.60
2022-07-27T23:32:45.440Z,19.60
2022-07-27T23:35:31.029Z,19.60
2022-07-27T23:38:16.145Z,19.60
2022-07-27T23:41:01.854Z,19.60
2022-07-27T23:43:47.139Z,19.50
2022-07-27T23:46:32.459Z,19.50
2022-07-27T23:49:17.777Z,19.50
2022-07-27T23:52:03.848Z,19.40
2022-07-27T23:54:48.975Z,19.40
2022-07-27T23:57:34.376Z,19.40
